Charlo, New Brunswick

11:50 PM ADT on October 15, 2019 (GMT -0300)
Southeast Northern NB | | Change Station
Active Advisory: Special Weather Statement

Elev 122 ft 47.95 °N, 66.46 °W | Updated 26 seconds ago

Clear
Clear
41 °F
Feels Like 41 °F
N
2.2
Wind Variable Wind from SSW
Gusts 0.0 mph

Today
High -- | Low -- °F
--% Chance of Precip.
Yesterday
High -- | Low -- °F
Precip. -- in
Pressure 30.01 in
Visibility 9.0 miles
Clouds Clear
Windchill 41 °F
Dew Point 35 °F
Humidity 80%
Rainfall 0.00 in
Snow Depth Not available.
7:44 AM 6:37 PM
Waning Gibbous, 95% visible
METAR CZBF 160200Z AUTO 25005KT 9SM CLR 03/00 A3000 RMK SLP163
Pressure 30.01 in
Visibility 9.0 miles
Clouds Clear
Windchill 41 °F
Dew Point 35 °F
Humidity 80%
Rainfall 0.00 in
Snow Depth Not available.
7:44 AM 6:37 PM
Waning Gibbous, 95% visible
METAR CZBF 160200Z AUTO 25005KT 9SM CLR 03/00 A3000 RMK SLP163

Get Severe Weather Alerts

Thanks for signing up!

Be on the lookout for a verification email in your inbox.

You'll start receiving the daily forecast at 6 AM.

×

10-Day Weather Forecast

Almanac

Astronomy

Oct. 15, 2019 Rise Set
Actual Time
Civil Twilight
Nautical Twilight
Astronomical Twilight
Moon
Length of Visible Light
Length of Day
Tomorrow will be .
, % of the Moon is Illuminated

Today's Extremes

Country Highs Country Lows

Community

WunderPhotos

Category 6

Welcome to Category 6. This is the collective home for Weather Underground's featured writeups by Dr. Jeff Masters (right), Bob Henson (left), Chris Burt, and other regular contributors.

Nearby

Air Quality

  Air Quality AQ Index Pollutant
Not available.

Snow Depth

Station Depth Elevation

Earthquake Activity

City Distance Mag. Time & Date
Minimum magnitude displayed is 2.5.

Coastal Water Temperatures

Place Temperature

Stations

Nearby Weather Stations

Station Location Temp. Windchill Dew Point Humidity Wind Precip. Elev Updated Type
                   

Watches & Warnings

Special Weather Statement
Issued: Environment Canada
Special Weather Statement issued by Environment.  07:30 PM ADT Tuesday 15 October 2019.
Rain and wind on Thursday.

An intense low pressure system will track towards the region on Thursday. Rain and wind will begin over southwestern sections of the province in the morning and reach the northeast by afternoon. Total rainfall amounts of 20 to 40 mm are expected but may exceed warning criteria of 50 mm along the Fundy and Bay of Chaleur coasts. Additionally, easterly wind gusts of 70 km/h or higher are likely and may reach warning criteria of 90 km/h. Higher than normal water levels and rough surf is also possible along the Bay of Chaleur coast near high tide Thursday evening.

###

Please continue to monitor alerts and forecasts issued by Environment Canada. To report severe weather, send an email to NBstorm@canada.ca or tweet reports using #NBStorm.
expires_epoch:1571246940